createdAt,value
2022-10-18T00:01:17.088Z,14.68
2022-10-18T00:03:46.957Z,16.35
2022-10-18T00:06:15.536Z,21.85
2022-10-18T00:08:44.001Z,20.98
2022-10-18T00:11:12.486Z,21.48
2022-10-18T00:13:40.928Z,18.67
2022-10-18T00:16:14.058Z,18.50
2022-10-18T00:18:43.255Z,15.60
2022-10-18T00:21:15.836Z,18.65
2022-10-18T00:23:45.295Z,18.27
2022-10-18T00:26:15.934Z,17.98
2022-10-18T00:28:46.284Z,16.15
2022-10-18T00:31:16.967Z,19.08
2022-10-18T00:33:47.127Z,18.33
2022-10-18T00:36:17.102Z,18.75
2022-10-18T00:38:46.291Z,16.83
2022-10-18T00:41:17.143Z,18.95
2022-10-18T00:43:57.513Z,21.25
2022-10-18T00:46:28.101Z,16.33
2022-10-18T00:48:57.692Z,20.35
2022-10-18T00:51:31.219Z,21.25
2022-10-18T00:54:00.042Z,16.83
2022-10-18T00:56:28.879Z,20.05
2022-10-18T01:01:28.369Z,15.65
2022-10-18T01:03:58.070Z,17.33
2022-10-18T01:06:29.719Z,18.58
2022-10-18T01:09:11.294Z,17.35
2022-10-18T01:11:56.125Z,19.55
2022-10-18T01:14:39.871Z,18.02
2022-10-18T01:17:15.923Z,20.38
2022-10-18T01:20:18.690Z,18.60
2022-10-18T01:22:55.477Z,16.52
2022-10-18T01:25:37.994Z,14.02
2022-10-18T01:28:17.331Z,17.38
2022-10-18T01:30:55.551Z,17.85
2022-10-18T01:33:38.941Z,14.27
2022-10-18T01:36:13.273Z,17.77
2022-10-18T01:38:44.837Z,21.48
2022-10-18T01:41:16.133Z,15.70
2022-10-18T01:43:47.696Z,17.73
2022-10-18T01:46:22.596Z,18.45
2022-10-18T01:48:52.808Z,19.50
2022-10-18T01:51:24.466Z,18.20
2022-10-18T01:53:53.040Z,18.20
2022-10-18T01:56:32.503Z,15.63
2022-10-18T01:59:45.713Z,19.00
2022-10-18T02:02:26.635Z,16.10
2022-10-18T02:05:03.528Z,17.40
2022-10-18T02:07:41.177Z,21.65
2022-10-18T02:10:12.484Z,21.20
2022-10-18T02:12:44.787Z,18.63
2022-10-18T02:15:18.758Z,21.73
2022-10-18T02:17:48.654Z,19.23
2022-10-18T02:20:21.140Z,18.38
2022-10-18T02:22:52.246Z,19.40
2022-10-18T02:25:25.167Z,15.75
2022-10-18T02:27:56.613Z,15.35
2022-10-18T02:30:31.734Z,19.15
2022-10-18T02:33:07.585Z,20.45
2022-10-18T02:35:41.869Z,18.52
2022-10-18T02:38:12.784Z,17.17
2022-10-18T02:40:41.332Z,16.42
2022-10-18T02:43:09.824Z,17.27
2022-10-18T02:45:38.252Z,18.98
2022-10-18T02:48:08.796Z,19.25
2022-10-18T02:50:37.168Z,18.67
2022-10-18T02:53:05.567Z,16.75
2022-10-18T02:55:33.893Z,16.70
2022-10-18T02:58:04.133Z,18.00
2022-10-18T03:00:32.582Z,18.48
2022-10-18T03:03:00.938Z,17.60
2022-10-18T03:05:30.744Z,18.83
2022-10-18T03:07:59.119Z,14.57
2022-10-18T03:10:27.584Z,16.33
2022-10-18T03:12:56.042Z,18.95
2022-10-18T03:15:24.412Z,18.00
2022-10-18T03:17:52.891Z,16.95
2022-10-18T03:20:21.307Z,14.27
2022-10-18T03:22:51.138Z,17.08
2022-10-18T03:25:19.761Z,17.17
2022-10-18T03:27:48.153Z,19.23
2022-10-18T03:30:16.497Z,16.40
2022-10-18T03:32:44.935Z,18.08
2022-10-18T03:35:13.318Z,18.67
2022-10-18T03:37:42.864Z,19.08
2022-10-18T03:40:13.225Z,18.45
2022-10-18T03:42:41.714Z,19.60
2022-10-18T03:45:10.966Z,17.92
2022-10-18T03:47:39.531Z,19.17
2022-10-18T03:50:08.211Z,15.57
2022-10-18T03:52:36.674Z,14.18
2022-10-18T03:55:05.741Z,23.52
2022-10-18T03:57:35.515Z,20.77
2022-10-18T04:00:04.034Z,17.20
2022-10-18T04:02:41.033Z,22.40
2022-10-18T04:07:38.064Z,17.63
2022-10-18T04:10:07.239Z,17.48
2022-10-18T04:12:37.080Z,15.85
2022-10-18T04:15:06.108Z,21.60
2022-10-18T04:17:34.758Z,18.45
2022-10-18T04:22:31.748Z,17.85
2022-10-18T04:25:00.211Z,16.80
2022-10-18T04:27:28.754Z,16.27
2022-10-18T04:29:58.664Z,14.63
2022-10-18T04:32:29.497Z,17.23
2022-10-18T04:34:57.979Z,21.42
2022-10-18T04:37:26.402Z,17.98
2022-10-18T04:39:54.811Z,18.30
2022-10-18T04:42:23.306Z,16.48
2022-10-18T04:44:52.200Z,13.93
2022-10-18T04:49:50.124Z,18.55
2022-10-18T04:52:18.790Z,17.70
2022-10-18T04:54:47.196Z,18.67
2022-10-18T04:57:15.565Z,18.35
2022-10-18T04:59:44.032Z,21.88
2022-10-18T05:02:12.604Z,17.55
2022-10-18T05:04:42.353Z,13.52
2022-10-18T05:07:10.748Z,23.20
2022-10-18T05:09:39.102Z,18.27
2022-10-18T05:12:07.778Z,16.33
2022-10-18T05:14:36.244Z,20.60
2022-10-18T05:17:04.711Z,16.42
2022-10-18T05:19:33.192Z,18.10
2022-10-18T05:22:03.042Z,18.50
2022-10-18T05:24:31.487Z,21.80
2022-10-18T05:26:59.947Z,20.05
2022-10-18T05:29:28.602Z,16.55
2022-10-18T05:31:57.081Z,17.13
2022-10-18T05:34:27.392Z,18.42
2022-10-18T05:36:55.790Z,18.92
2022-10-18T05:39:25.606Z,19.63
2022-10-18T05:41:54.082Z,16.77
2022-10-18T05:44:22.621Z,18.25
2022-10-18T05:46:51.037Z,18.45
2022-10-18T05:49:19.593Z,15.57
2022-10-18T05:51:47.996Z,19.15
2022-10-18T05:54:16.939Z,13.50
2022-10-18T05:56:46.693Z,16.50
2022-10-18T05:59:15.087Z,18.30
2022-10-18T06:01:44.301Z,17.45
2022-10-18T06:04:12.902Z,18.77
2022-10-18T06:06:41.323Z,23.27
2022-10-18T06:09:09.804Z,17.05
2022-10-18T06:11:38.449Z,22.42
2022-10-18T06:14:09.503Z,19.33
2022-10-18T06:19:11.348Z,20.60
2022-10-18T06:21:39.676Z,19.83
2022-10-18T06:24:08.302Z,18.98
2022-10-18T06:26:36.636Z,23.23
2022-10-18T06:29:05.130Z,23.80
2022-10-18T06:31:34.962Z,16.45
2022-10-18T06:34:03.357Z,17.90
2022-10-18T06:36:31.981Z,17.52
2022-10-18T06:39:00.414Z,18.98
2022-10-18T06:41:28.899Z,19.52
2022-10-18T06:44:13.737Z,15.40
2022-10-18T06:46:48.440Z,21.25
2022-10-18T06:49:19.196Z,20.48
2022-10-18T06:51:48.152Z,19.48
2022-10-18T06:54:18.665Z,22.13
2022-10-18T06:56:47.971Z,19.20
2022-10-18T06:59:16.680Z,21.23
2022-10-18T07:04:14.801Z,25.95
2022-10-18T07:06:43.188Z,23.23
2022-10-18T07:09:11.545Z,24.80
2022-10-18T07:11:40.049Z,24.08
2022-10-18T07:14:08.836Z,26.02
2022-10-18T07:16:38.816Z,28.70
2022-10-18T07:19:08.637Z,25.17
2022-10-18T07:21:37.166Z,29.55
2022-10-18T07:24:05.765Z,29.40
2022-10-18T07:26:35.919Z,26.65
2022-10-18T07:29:09.001Z,31.10
2022-10-18T07:31:38.614Z,31.15
2022-10-18T07:34:09.967Z,31.92
2022-10-18T07:36:38.450Z,34.45
2022-10-18T07:39:07.245Z,28.02
2022-10-18T07:44:05.316Z,34.00
2022-10-18T07:46:33.758Z,32.50
2022-10-18T07:49:02.259Z,31.63
2022-10-18T07:51:32.985Z,27.75
2022-10-18T07:54:01.400Z,35.35
2022-10-18T07:56:29.909Z,31.45
2022-10-18T07:58:58.479Z,28.58
2022-10-18T08:01:27.247Z,28.02
2022-10-18T08:03:55.766Z,32.83
2022-10-18T08:06:25.139Z,25.52
2022-10-18T08:08:55.076Z,24.75
2022-10-18T08:11:25.089Z,26.63
2022-10-18T08:13:54.771Z,25.83
2022-10-18T08:16:25.465Z,25.60
2022-10-18T08:19:01.454Z,27.10
2022-10-18T08:21:30.032Z,27.42
2022-10-18T08:23:59.865Z,29.65
2022-10-18T08:26:28.346Z,30.65
2022-10-18T08:29:17.497Z,25.42
2022-10-18T08:31:45.387Z,26.33
2022-10-18T08:34:17.307Z,25.20
2022-10-18T08:36:48.082Z,27.23
2022-10-18T08:39:17.816Z,22.80
2022-10-18T08:42:09.302Z,26.05
2022-10-18T08:44:45.298Z,19.42
2022-10-18T08:47:18.120Z,25.00
2022-10-18T08:49:50.588Z,24.90
2022-10-18T08:52:29.531Z,24.27
2022-10-18T08:55:04.707Z,28.55
2022-10-18T08:57:34.387Z,27.35
2022-10-18T09:00:04.425Z,25.10
2022-10-18T09:02:44.276Z,24.60
2022-10-18T09:05:24.039Z,22.75
2022-10-18T09:08:17.023Z,27.17
2022-10-18T09:13:58.394Z,23.63
2022-10-18T09:16:35.978Z,22.95
2022-10-18T09:19:17.328Z,21.58
2022-10-18T09:21:53.446Z,22.40
2022-10-18T09:24:28.981Z,24.95
2022-10-18T09:27:07.920Z,20.08
2022-10-18T09:29:49.369Z,18.73
2022-10-18T09:32:34.095Z,20.90
2022-10-18T09:35:06.432Z,17.52
2022-10-18T09:37:36.361Z,20.63
2022-10-18T09:40:18.138Z,17.65
2022-10-18T09:42:56.672Z,20.42
2022-10-18T09:45:30.717Z,24.58
2022-10-18T09:48:08.985Z,19.60
2022-10-18T09:50:42.505Z,19.60
2022-10-18T09:53:19.894Z,16.05
2022-10-18T09:56:00.795Z,15.15
2022-10-18T09:58:41.258Z,16.98
2022-10-18T10:01:11.454Z,18.35
2022-10-18T10:03:40.617Z,19.85
2022-10-18T10:06:25.454Z,17.40
2022-10-18T10:09:02.705Z,14.85
2022-10-18T10:11:35.210Z,15.63
2022-10-18T10:16:55.997Z,14.63
2022-10-18T10:19:28.579Z,15.95
2022-10-18T10:22:10.706Z,18.55
2022-10-18T10:24:49.537Z,16.20
2022-10-18T10:30:01.490Z,14.93
2022-10-18T10:32:47.196Z,19.13
2022-10-18T10:38:27.069Z,18.20
2022-10-18T10:40:56.314Z,16.42
2022-10-18T10:43:42.817Z,18.60
2022-10-18T10:46:15.388Z,16.55
2022-10-18T10:48:52.155Z,15.52
2022-10-18T10:51:31.764Z,17.20
2022-10-18T10:54:03.594Z,16.55
2022-10-18T10:56:34.929Z,16.38
2022-10-18T10:59:11.601Z,17.13
2022-10-18T11:01:41.829Z,17.42
2022-10-18T11:04:29.037Z,16.95
2022-10-18T11:07:08.301Z,16.85
2022-10-18T11:09:50.187Z,16.90
2022-10-18T11:12:25.336Z,15.45
2022-10-18T11:15:00.855Z,22.13
2022-10-18T11:17:37.291Z,17.45
2022-10-18T11:20:28.220Z,17.10
2022-10-18T11:23:03.256Z,19.20
2022-10-18T11:26:00.042Z,17.20
2022-10-18T11:28:40.766Z,18.92
2022-10-18T11:31:18.393Z,17.63
2022-10-18T11:34:09.274Z,17.23
2022-10-18T11:36:56.413Z,17.55
2022-10-18T11:39:45.081Z,17.35
2022-10-18T11:42:21.772Z,19.60
2022-10-18T11:45:00.367Z,19.48
2022-10-18T11:47:39.563Z,18.88
2022-10-18T11:50:26.698Z,19.42
2022-10-18T11:53:04.953Z,20.05
2022-10-18T11:55:49.966Z,17.30
2022-10-18T11:58:30.267Z,21.08
2022-10-18T12:01:04.976Z,20.73
2022-10-18T12:03:41.707Z,20.98
2022-10-18T12:06:16.874Z,23.00
2022-10-18T12:08:50.137Z,23.13
2022-10-18T12:11:22.589Z,23.23
2022-10-18T12:13:54.864Z,21.33
2022-10-18T12:16:49.253Z,20.48
2022-10-18T12:19:23.625Z,22.30
2022-10-18T12:21:58.153Z,21.95
2022-10-18T12:24:30.140Z,27.13
2022-10-18T12:27:02.002Z,21.80
2022-10-18T12:29:38.478Z,20.85
2022-10-18T12:32:10.193Z,23.05
2022-10-18T12:34:44.134Z,20.42
2022-10-18T12:37:29.528Z,23.50
2022-10-18T12:40:13.220Z,21.65
2022-10-18T12:42:46.600Z,21.70
2022-10-18T12:45:32.452Z,20.30
2022-10-18T12:48:02.368Z,20.23
2022-10-18T12:50:35.017Z,18.77
2022-10-18T12:53:09.033Z,17.13
2022-10-18T12:55:39.216Z,16.75
2022-10-18T12:58:25.781Z,17.60
2022-10-18T13:00:56.350Z,14.50
2022-10-18T13:03:54.618Z,15.02
2022-10-18T13:06:24.007Z,13.25
2022-10-18T13:09:22.277Z,11.60
2022-10-18T13:11:52.869Z,11.80
2022-10-18T13:15:12.734Z,12.50
2022-10-18T13:17:53.326Z,11.07
2022-10-18T13:20:28.104Z,11.32
2022-10-18T13:23:09.890Z,9.02
2022-10-18T13:25:52.842Z,11.02
2022-10-18T13:28:28.860Z,9.20
2022-10-18T13:31:02.906Z,8.98
2022-10-18T13:33:34.581Z,7.55
2022-10-18T13:36:05.811Z,5.45
2022-10-18T13:38:48.630Z,4.75
2022-10-18T13:41:21.330Z,5.70
2022-10-18T13:44:13.151Z,3.80
2022-10-18T13:47:20.312Z,5.57
2022-10-18T13:50:31.776Z,6.15
2022-10-18T13:53:45.789Z,4.25
2022-10-18T13:56:35.637Z,2.95
2022-10-18T13:59:19.346Z,3.80
2022-10-18T14:01:58.669Z,3.05
2022-10-18T14:04:52.531Z,5.15
2022-10-18T14:07:21.451Z,2.78
2022-10-18T14:12:30.301Z,2.25
2022-10-18T14:15:06.577Z,4.47
2022-10-18T14:17:41.056Z,2.25
2022-10-18T14:20:28.631Z,2.35
2022-10-18T14:23:06.368Z,1.52
2022-10-18T14:25:36.935Z,3.33
2022-10-18T14:28:12.590Z,1.27
2022-10-18T14:30:55.648Z,2.25
2022-10-18T14:33:35.128Z,2.45
2022-10-18T14:36:10.358Z,2.45
2022-10-18T14:38:50.078Z,2.72
2022-10-18T14:41:23.436Z,2.72
2022-10-18T14:43:55.030Z,1.60
2022-10-18T14:46:29.020Z,2.58
2022-10-18T14:49:02.200Z,1.77
2022-10-18T14:51:34.634Z,2.10
2022-10-18T14:54:04.402Z,1.48
2022-10-18T14:56:38.180Z,2.65
2022-10-18T14:59:17.873Z,2.50
2022-10-18T15:01:55.910Z,2.47
2022-10-18T15:04:31.149Z,1.60
2022-10-18T15:07:01.326Z,1.90
2022-10-18T15:09:31.298Z,4.18
2022-10-18T15:12:00.798Z,3.08
2022-10-18T15:14:31.969Z,2.45
2022-10-18T15:17:03.941Z,1.77
2022-10-18T15:19:35.203Z,1.80
2022-10-18T15:22:31.180Z,1.85
2022-10-18T15:25:18.143Z,2.70
2022-10-18T15:27:48.983Z,2.25
2022-10-18T15:30:28.136Z,1.10
2022-10-18T15:32:58.146Z,1.55
2022-10-18T15:35:29.428Z,3.35
2022-10-18T15:38:00.313Z,2.33
2022-10-18T15:40:46.887Z,0.85
2022-10-18T15:43:35.162Z,3.03
2022-10-18T15:46:07.304Z,0.75
2022-10-18T15:48:39.187Z,0.85
2022-10-18T15:51:08.891Z,1.58
2022-10-18T15:53:45.387Z,1.92
2022-10-18T15:56:32.889Z,0.73
2022-10-18T15:59:04.168Z,1.38
2022-10-18T16:01:44.979Z,1.20
2022-10-18T16:04:21.250Z,1.02
2022-10-18T16:06:49.833Z,0.70
2022-10-18T16:09:20.424Z,1.67
2022-10-18T16:11:54.291Z,0.70
2022-10-18T16:14:26.977Z,2.17
2022-10-18T16:17:18.747Z,1.55
2022-10-18T16:19:47.314Z,2.88
2022-10-18T16:22:15.807Z,1.92
2022-10-18T16:24:44.246Z,1.02
2022-10-18T16:27:12.635Z,2.90
2022-10-18T16:29:41.693Z,0.68
2022-10-18T16:32:11.668Z,1.95
2022-10-18T16:34:40.229Z,1.30
2022-10-18T16:37:08.704Z,0.93
2022-10-18T16:39:37.264Z,1.17
2022-10-18T16:42:05.976Z,2.08
2022-10-18T16:44:34.513Z,2.42
2022-10-18T16:47:03.194Z,2.70
2022-10-18T16:49:33.505Z,0.82
2022-10-18T16:52:02.083Z,1.77
2022-10-18T16:54:30.557Z,2.20
2022-10-18T16:56:59.127Z,0.70
2022-10-18T16:59:29.615Z,4.28
2022-10-18T17:01:58.901Z,2.30
2022-10-18T17:04:27.580Z,0.57
2022-10-18T17:06:59.456Z,1.45
2022-10-18T17:09:28.126Z,1.00
2022-10-18T17:11:56.726Z,0.93
2022-10-18T17:14:25.218Z,1.60
2022-10-18T17:16:55.911Z,0.85
2022-10-18T17:19:24.806Z,1.27
2022-10-18T17:21:53.416Z,0.70
2022-10-18T17:24:23.481Z,1.52
2022-10-18T17:26:52.224Z,0.77
2022-10-18T17:29:20.777Z,0.90
2022-10-18T17:31:49.400Z,0.55
2022-10-18T17:34:21.420Z,0.90
2022-10-18T17:36:50.282Z,0.88
2022-10-18T17:39:18.824Z,0.45
2022-10-18T17:41:49.072Z,1.25
2022-10-18T17:44:18.353Z,0.68
2022-10-18T17:46:46.921Z,1.15
2022-10-18T17:49:16.945Z,1.23
2022-10-18T17:51:46.593Z,1.48
2022-10-18T17:54:15.581Z,2.70
2022-10-18T17:59:16.013Z,2.25
2022-10-18T18:04:15.093Z,1.40
2022-10-18T18:06:45.662Z,0.77
2022-10-18T18:09:17.986Z,1.50
2022-10-18T18:11:49.560Z,1.10
2022-10-18T18:14:20.479Z,1.25
2022-10-18T18:16:50.114Z,1.60
2022-10-18T18:19:20.518Z,3.28
2022-10-18T18:21:53.731Z,1.40
2022-10-18T18:24:25.050Z,1.98
2022-10-18T18:26:54.496Z,1.40
2022-10-18T18:29:26.582Z,2.70
2022-10-18T18:31:56.095Z,1.58
2022-10-18T18:34:25.496Z,1.08
2022-10-18T18:36:54.709Z,2.08
2022-10-18T18:39:25.986Z,2.40
2022-10-18T18:41:55.151Z,2.42
2022-10-18T18:46:54.960Z,1.38
2022-10-18T18:51:52.330Z,1.83
2022-10-18T18:56:50.936Z,4.32
2022-10-18T18:59:20.241Z,1.13
2022-10-18T19:01:50.683Z,2.17
2022-10-18T19:04:19.608Z,2.10
2022-10-18T19:06:50.900Z,2.03
2022-10-18T19:09:22.303Z,2.25
2022-10-18T19:11:53.578Z,2.50
2022-10-18T19:14:24.522Z,2.15
2022-10-18T19:16:57.658Z,3.58
2022-10-18T19:19:28.712Z,1.73
2022-10-18T19:21:58.942Z,3.15
2022-10-18T19:24:30.420Z,1.63
2022-10-18T19:27:00.942Z,2.53
2022-10-18T19:29:31.046Z,1.80
2022-10-18T19:32:02.154Z,4.40
2022-10-18T19:34:32.254Z,3.95
2022-10-18T19:37:00.772Z,2.75
2022-10-18T19:39:31.703Z,2.15
2022-10-18T19:42:03.343Z,2.35
2022-10-18T19:44:36.067Z,3.65
2022-10-18T19:47:07.284Z,2.40
2022-10-18T19:49:35.733Z,2.00
2022-10-18T19:52:04.211Z,1.92
2022-10-18T19:54:32.769Z,1.63
2022-10-18T19:57:01.203Z,3.05
2022-10-18T19:59:29.887Z,3.95
2022-10-18T20:02:00.634Z,2.25
2022-10-18T20:04:34.333Z,2.75
2022-10-18T20:07:05.770Z,2.15
2022-10-18T20:09:34.329Z,3.58
2022-10-18T20:12:02.860Z,3.15
2022-10-18T20:14:31.334Z,1.95
2022-10-18T20:16:59.738Z,2.78
2022-10-18T20:19:28.314Z,3.90
2022-10-18T20:21:58.956Z,3.17
2022-10-18T20:24:27.579Z,2.33
2022-10-18T20:26:56.109Z,2.88
2022-10-18T20:29:25.614Z,2.75
2022-10-18T20:31:55.747Z,2.47
2022-10-18T20:34:29.822Z,1.95
2022-10-18T20:36:59.771Z,3.33
2022-10-18T20:39:28.441Z,3.63
2022-10-18T20:41:56.887Z,2.53
2022-10-18T20:44:27.101Z,2.45
2022-10-18T20:46:55.599Z,4.45
2022-10-18T20:49:23.997Z,1.77
2022-10-18T20:51:54.955Z,2.33
2022-10-18T20:54:25.024Z,4.32
2022-10-18T20:56:53.558Z,4.47
2022-10-18T20:59:24.995Z,2.90
2022-10-18T21:01:53.517Z,2.38
2022-10-18T21:04:24.266Z,3.20
2022-10-18T21:06:55.240Z,4.53
2022-10-18T21:09:25.405Z,3.58
2022-10-18T21:11:54.860Z,3.45
2022-10-18T21:14:26.899Z,3.30
2022-10-18T21:16:58.582Z,4.57
2022-10-18T21:19:28.434Z,4.07
2022-10-18T21:21:58.802Z,4.78
2022-10-18T21:24:30.103Z,6.32
2022-10-18T21:26:59.220Z,5.28
2022-10-18T21:29:27.832Z,5.38
2022-10-18T21:31:59.694Z,3.65
2022-10-18T21:34:30.742Z,4.50
2022-10-18T21:36:59.525Z,4.10
2022-10-18T21:39:30.224Z,3.67
2022-10-18T21:41:58.944Z,4.47
2022-10-18T21:44:27.727Z,6.63
2022-10-18T21:46:57.060Z,7.00
2022-10-18T21:49:26.407Z,3.45
2022-10-18T21:51:54.835Z,4.22
2022-10-18T21:54:23.204Z,4.40
2022-10-18T21:56:53.045Z,5.57
2022-10-18T21:59:21.641Z,7.82
2022-10-18T22:01:50.024Z,13.65
2022-10-18T22:04:21.769Z,13.07
2022-10-18T22:06:50.944Z,12.30
2022-10-18T22:09:19.627Z,11.05
2022-10-18T22:11:50.827Z,7.15
2022-10-18T22:14:21.037Z,5.28
2022-10-18T22:16:52.451Z,7.20
2022-10-18T22:19:21.661Z,6.15
2022-10-18T22:21:50.437Z,4.28
2022-10-18T22:24:19.088Z,4.72
2022-10-18T22:26:47.948Z,6.38
